NCAR-RAP Real-Time Weather Data

Output produced by METARs form (17 September 2019  16:12 UTC)
found at http://weather.rap.ucar.edu/surface/
 
K8D3 171556Z AUTO 19015G26KT 27/21 A2972 RMK AO1 PK WND 16027/1542 SLP044 T02720206
K8D3 171456Z AUTO 15012G19KT 25/21 A2973 RMK AO1 SLP050 T02500211 58009
K8D3 171356Z AUTO 14012G20KT 23/21 A2974 RMK AO1 SLP054 T02280211
K8D3 171256Z AUTO 15009KT 21/21 A2976 RMK AO1 SLP058 T02110206
K8D3 171156Z AUTO 17007G17KT 21/20 A2976 RMK AO1 SLP059 60016 70016 T02060200 10256 20206 56021
K8D3 171056Z AUTO 13010KT 21/20 A2977 RMK AO1 SLP059 T02060200
K8D3 170956Z AUTO 13009KT 21/21 A2980 RMK AO1 SLP069 P0001 T02110206
K8D3 170856Z AUTO 34007KT 21/21 A2983 RMK AO1 SLP078 P0015 60015 T02060206 50005
K8D3 170756Z AUTO 20014G28KT 21/19 A2985 RMK AO1 PK WND 20040/0706 SLP085 T02110194
K8D3 170656Z AUTO 20024G41KT 24/21 A2982 RMK AO1 PK WND 20041/0654 SLP072 T02440211
K8D3 170556Z AUTO 17009KT 24/21 A2981 RMK AO1 SLP071 T02440206 10267 20217 403170172 55002
K8D3 170456Z AUTO 14008KT 22/21 A2981 RMK AO1 SLP073 T02220211
K8D3 170356Z AUTO 14008KT 22/21 A2982 RMK AO1 SLP079 T02220211
K8D3 170256Z AUTO 14009KT 23/21 A2982 RMK AO1 SLP079 T02280211 50002
K8D3 170056Z AUTO 14008KT 24/21 A2981 RMK AO1 SLP080 T02390211
K8D3 162356Z AUTO 17010G17KT 27/21 A2981 RMK AO1 SLP077 T02670206 10317 20267 53001
K8D3 162256Z AUTO 17011G20KT 30/21 A2980 RMK AO1 SLP072 T03000211
K8D3 162156Z AUTO 16011KT 31/22 A2980 RMK AO1 SLP071 T03060217
K8D3 162056Z AUTO 15012KT 30/23 A2981 RMK AO1 SLP073 T03000233 56007